sensor_id;sensor_type;location;lat;lon;timestamp;P1;durP1;ratioP1;P2;durP2;ratioP2
75847;SDS011;65750;47.540;19.090;2023-04-06T00:01:17;3.15;;;1.58;;
75847;SDS011;65750;47.540;19.090;2023-04-06T00:03:45;3.72;;;1.52;;
75847;SDS011;65750;47.540;19.090;2023-04-06T00:06:12;2.90;;;1.80;;
75847;SDS011;65750;47.540;19.090;2023-04-06T00:08:40;3.35;;;1.80;;
75847;SDS011;65750;47.540;19.090;2023-04-06T00:11:08;3.13;;;1.70;;
75847;SDS011;65750;47.540;19.090;2023-04-06T00:13:36;3.67;;;1.67;;
75847;SDS011;65750;47.540;19.090;2023-04-06T00:16:03;3.22;;;1.90;;
75847;SDS011;65750;47.540;19.090;2023-04-06T00:18:31;3.33;;;1.70;;
75847;SDS011;65750;47.540;19.090;2023-04-06T00:20:58;2.58;;;1.60;;
75847;SDS011;65750;47.540;19.090;2023-04-06T00:23:25;3.13;;;1.80;;
75847;SDS011;65750;47.540;19.090;2023-04-06T00:25:54;2.72;;;1.50;;
75847;SDS011;65750;47.540;19.090;2023-04-06T00:28:21;3.60;;;1.83;;
75847;SDS011;65750;47.540;19.090;2023-04-06T00:30:50;3.03;;;1.67;;
75847;SDS011;65750;47.540;19.090;2023-04-06T00:33:21;3.25;;;1.80;;
75847;SDS011;65750;47.540;19.090;2023-04-06T00:35:48;3.43;;;1.83;;
75847;SDS011;65750;47.540;19.090;2023-04-06T00:38:15;3.15;;;1.70;;
75847;SDS011;65750;47.540;19.090;2023-04-06T00:40:42;2.90;;;1.60;;
75847;SDS011;65750;47.540;19.090;2023-04-06T00:43:12;3.47;;;1.62;;
75847;SDS011;65750;47.540;19.090;2023-04-06T00:45:39;3.40;;;1.77;;
75847;SDS011;65750;47.540;19.090;2023-04-06T00:48:08;3.10;;;1.80;;
75847;SDS011;65750;47.540;19.090;2023-04-06T00:50:35;2.92;;;1.65;;
75847;SDS011;65750;47.540;19.090;2023-04-06T00:53:02;3.67;;;1.83;;
75847;SDS011;65750;47.540;19.090;2023-04-06T00:55:29;2.92;;;1.77;;
75847;SDS011;65750;47.540;19.090;2023-04-06T00:57:57;3.20;;;1.80;;
75847;SDS011;65750;47.540;19.090;2023-04-06T01:00:27;3.17;;;1.73;;
75847;SDS011;65750;47.540;19.090;2023-04-06T01:02:55;3.42;;;1.87;;
75847;SDS011;65750;47.540;19.090;2023-04-06T01:05:23;3.22;;;1.83;;
75847;SDS011;65750;47.540;19.090;2023-04-06T01:07:50;2.95;;;1.80;;
75847;SDS011;65750;47.540;19.090;2023-04-06T01:10:24;3.15;;;1.67;;
75847;SDS011;65750;47.540;19.090;2023-04-06T01:12:52;3.57;;;1.93;;
75847;SDS011;65750;47.540;19.090;2023-04-06T01:15:20;3.58;;;2.00;;
75847;SDS011;65750;47.540;19.090;2023-04-06T01:17:50;3.67;;;2.10;;
75847;SDS011;65750;47.540;19.090;2023-04-06T01:20:17;3.42;;;1.75;;
75847;SDS011;65750;47.540;19.090;2023-04-06T01:22:47;3.42;;;2.15;;
75847;SDS011;65750;47.540;19.090;2023-04-06T01:25:14;4.17;;;2.00;;
75847;SDS011;65750;47.540;19.090;2023-04-06T01:27:42;3.15;;;2.08;;
75847;SDS011;65750;47.540;19.090;2023-04-06T01:30:13;3.15;;;2.05;;
75847;SDS011;65750;47.540;19.090;2023-04-06T01:32:41;3.17;;;1.90;;
75847;SDS011;65750;47.540;19.090;2023-04-06T01:35:09;3.50;;;1.90;;
75847;SDS011;65750;47.540;19.090;2023-04-06T01:37:37;4.03;;;2.17;;
75847;SDS011;65750;47.540;19.090;2023-04-06T01:40:07;3.62;;;2.15;;
75847;SDS011;65750;47.540;19.090;2023-04-06T01:42:35;3.35;;;1.90;;
75847;SDS011;65750;47.540;19.090;2023-04-06T01:45:03;3.40;;;1.90;;
75847;SDS011;65750;47.540;19.090;2023-04-06T01:47:31;3.92;;;2.37;;
75847;SDS011;65750;47.540;19.090;2023-04-06T01:49:59;3.10;;;2.10;;
75847;SDS011;65750;47.540;19.090;2023-04-06T01:52:27;3.40;;;1.92;;
75847;SDS011;65750;47.540;19.090;2023-04-06T01:54:54;3.22;;;2.05;;
75847;SDS011;65750;47.540;19.090;2023-04-06T01:57:23;4.00;;;2.10;;
75847;SDS011;65750;47.540;19.090;2023-04-06T01:59:51;3.42;;;2.17;;
75847;SDS011;65750;47.540;19.090;2023-04-06T02:02:18;3.50;;;2.10;;
75847;SDS011;65750;47.540;19.090;2023-04-06T02:04:48;3.45;;;2.20;;
75847;SDS011;65750;47.540;19.090;2023-04-06T02:07:17;3.87;;;2.00;;
75847;SDS011;65750;47.540;19.090;2023-04-06T02:09:44;3.42;;;2.20;;
75847;SDS011;65750;47.540;19.090;2023-04-06T02:12:12;3.58;;;2.20;;
75847;SDS011;65750;47.540;19.090;2023-04-06T02:14:41;3.40;;;2.40;;
75847;SDS011;65750;47.540;19.090;2023-04-06T02:17:08;3.65;;;2.15;;
75847;SDS011;65750;47.540;19.090;2023-04-06T02:19:36;3.62;;;2.30;;
75847;SDS011;65750;47.540;19.090;2023-04-06T02:22:03;3.60;;;2.30;;
75847;SDS011;65750;47.540;19.090;2023-04-06T02:24:31;4.37;;;2.50;;
75847;SDS011;65750;47.540;19.090;2023-04-06T02:26:59;3.50;;;2.20;;
75847;SDS011;65750;47.540;19.090;2023-04-06T02:29:26;3.22;;;2.10;;
75847;SDS011;65750;47.540;19.090;2023-04-06T02:31:55;3.70;;;2.35;;
75847;SDS011;65750;47.540;19.090;2023-04-06T02:34:22;3.75;;;2.40;;
75847;SDS011;65750;47.540;19.090;2023-04-06T02:36:50;3.25;;;2.20;;
75847;SDS011;65750;47.540;19.090;2023-04-06T02:39:17;5.43;;;2.50;;
75847;SDS011;65750;47.540;19.090;2023-04-06T02:41:45;3.17;;;2.03;;
75847;SDS011;65750;47.540;19.090;2023-04-06T02:44:13;4.03;;;2.28;;
75847;SDS011;65750;47.540;19.090;2023-04-06T02:46:41;4.45;;;2.40;;
75847;SDS011;65750;47.540;19.090;2023-04-06T02:49:09;4.80;;;2.50;;
75847;SDS011;65750;47.540;19.090;2023-04-06T02:51:36;3.63;;;2.40;;
75847;SDS011;65750;47.540;19.090;2023-04-06T02:54:04;3.92;;;2.45;;
75847;SDS011;65750;47.540;19.090;2023-04-06T02:56:32;4.15;;;2.20;;
75847;SDS011;65750;47.540;19.090;2023-04-06T02:58:59;4.12;;;2.33;;
75847;SDS011;65750;47.540;19.090;2023-04-06T03:01:27;4.30;;;2.28;;
75847;SDS011;65750;47.540;19.090;2023-04-06T03:03:55;4.93;;;2.70;;
75847;SDS011;65750;47.540;19.090;2023-04-06T03:06:24;4.35;;;2.70;;
75847;SDS011;65750;47.540;19.090;2023-04-06T03:08:53;4.25;;;2.25;;
75847;SDS011;65750;47.540;19.090;2023-04-06T03:11:20;4.22;;;2.42;;
75847;SDS011;65750;47.540;19.090;2023-04-06T03:13:48;4.10;;;2.40;;
75847;SDS011;65750;47.540;19.090;2023-04-06T03:16:16;5.00;;;2.57;;
75847;SDS011;65750;47.540;19.090;2023-04-06T03:18:43;4.00;;;2.50;;
75847;SDS011;65750;47.540;19.090;2023-04-06T03:21:12;4.40;;;2.42;;
75847;SDS011;65750;47.540;19.090;2023-04-06T03:23:42;5.03;;;2.40;;
75847;SDS011;65750;47.540;19.090;2023-04-06T03:26:09;4.18;;;2.53;;
75847;SDS011;65750;47.540;19.090;2023-04-06T03:28:36;4.73;;;2.57;;
75847;SDS011;65750;47.540;19.090;2023-04-06T03:31:04;3.80;;;2.30;;
75847;SDS011;65750;47.540;19.090;2023-04-06T03:33:34;4.03;;;2.35;;
75847;SDS011;65750;47.540;19.090;2023-04-06T03:36:01;4.15;;;2.37;;
75847;SDS011;65750;47.540;19.090;2023-04-06T03:38:30;4.85;;;2.60;;
75847;SDS011;65750;47.540;19.090;2023-04-06T03:40:58;4.20;;;2.60;;
75847;SDS011;65750;47.540;19.090;2023-04-06T03:43:25;4.47;;;2.75;;
75847;SDS011;65750;47.540;19.090;2023-04-06T03:45:53;3.97;;;2.65;;
75847;SDS011;65750;47.540;19.090;2023-04-06T03:48:20;4.72;;;2.92;;
75847;SDS011;65750;47.540;19.090;2023-04-06T03:50:47;4.53;;;2.70;;
75847;SDS011;65750;47.540;19.090;2023-04-06T03:53:14;5.60;;;2.80;;
75847;SDS011;65750;47.540;19.090;2023-04-06T03:55:41;4.65;;;2.65;;
75847;SDS011;65750;47.540;19.090;2023-04-06T03:58:10;4.97;;;2.80;;
75847;SDS011;65750;47.540;19.090;2023-04-06T04:00:37;4.20;;;2.30;;
75847;SDS011;65750;47.540;19.090;2023-04-06T04:03:04;4.22;;;2.53;;
75847;SDS011;65750;47.540;19.090;2023-04-06T04:05:31;4.77;;;2.67;;
75847;SDS011;65750;47.540;19.090;2023-04-06T04:07:58;4.28;;;2.75;;
75847;SDS011;65750;47.540;19.090;2023-04-06T04:10:26;4.85;;;2.67;;
75847;SDS011;65750;47.540;19.090;2023-04-06T04:12:53;3.50;;;2.28;;
75847;SDS011;65750;47.540;19.090;2023-04-06T04:15:22;5.45;;;2.78;;
75847;SDS011;65750;47.540;19.090;2023-04-06T04:17:49;4.13;;;2.63;;
75847;SDS011;65750;47.540;19.090;2023-04-06T04:20:16;4.18;;;2.47;;
75847;SDS011;65750;47.540;19.090;2023-04-06T04:22:43;4.28;;;2.40;;
75847;SDS011;65750;47.540;19.090;2023-04-06T04:25:10;4.32;;;2.78;;
75847;SDS011;65750;47.540;19.090;2023-04-06T04:27:38;5.10;;;2.62;;
75847;SDS011;65750;47.540;19.090;2023-04-06T04:30:06;3.90;;;2.57;;
75847;SDS011;65750;47.540;19.090;2023-04-06T04:32:35;4.75;;;2.80;;
75847;SDS011;65750;47.540;19.090;2023-04-06T04:35:03;5.07;;;2.60;;
75847;SDS011;65750;47.540;19.090;2023-04-06T04:37:30;3.92;;;2.47;;
75847;SDS011;65750;47.540;19.090;2023-04-06T04:39:58;4.10;;;2.40;;
75847;SDS011;65750;47.540;19.090;2023-04-06T04:42:26;4.33;;;2.40;;
75847;SDS011;65750;47.540;19.090;2023-04-06T04:44:54;5.28;;;2.62;;
75847;SDS011;65750;47.540;19.090;2023-04-06T04:47:23;6.40;;;3.10;;
75847;SDS011;65750;47.540;19.090;2023-04-06T04:49:51;6.12;;;3.03;;
75847;SDS011;65750;47.540;19.090;2023-04-06T04:52:19;8.73;;;3.85;;
75847;SDS011;65750;47.540;19.090;2023-04-06T04:54:47;9.30;;;3.80;;
75847;SDS011;65750;47.540;19.090;2023-04-06T04:57:16;10.18;;;3.90;;
75847;SDS011;65750;47.540;19.090;2023-04-06T04:59:43;6.78;;;3.42;;
75847;SDS011;65750;47.540;19.090;2023-04-06T05:02:12;7.35;;;3.75;;
75847;SDS011;65750;47.540;19.090;2023-04-06T05:04:40;8.55;;;3.50;;
75847;SDS011;65750;47.540;19.090;2023-04-06T05:07:09;8.50;;;3.90;;
75847;SDS011;65750;47.540;19.090;2023-04-06T05:09:37;10.73;;;4.05;;
75847;SDS011;65750;47.540;19.090;2023-04-06T05:12:04;8.45;;;3.90;;
75847;SDS011;65750;47.540;19.090;2023-04-06T05:14:32;8.35;;;3.53;;
75847;SDS011;65750;47.540;19.090;2023-04-06T05:17:01;7.93;;;3.55;;
75847;SDS011;65750;47.540;19.090;2023-04-06T05:19:29;8.67;;;4.20;;
75847;SDS011;65750;47.540;19.090;2023-04-06T05:21:56;8.25;;;4.00;;
75847;SDS011;65750;47.540;19.090;2023-04-06T05:24:25;8.95;;;3.90;;
75847;SDS011;65750;47.540;19.090;2023-04-06T05:26:54;10.27;;;3.80;;
75847;SDS011;65750;47.540;19.090;2023-04-06T05:29:21;8.88;;;4.35;;
75847;SDS011;65750;47.540;19.090;2023-04-06T05:31:49;11.33;;;4.10;;
75847;SDS011;65750;47.540;19.090;2023-04-06T05:34:17;9.73;;;4.18;;
75847;SDS011;65750;47.540;19.090;2023-04-06T05:36:45;7.43;;;3.87;;
75847;SDS011;65750;47.540;19.090;2023-04-06T05:39:13;19.45;;;3.92;;
75847;SDS011;65750;47.540;19.090;2023-04-06T05:41:42;8.93;;;4.10;;
75847;SDS011;65750;47.540;19.090;2023-04-06T05:44:09;7.37;;;4.13;;
75847;SDS011;65750;47.540;19.090;2023-04-06T05:46:37;9.30;;;3.87;;
75847;SDS011;65750;47.540;19.090;2023-04-06T05:49:06;9.10;;;4.12;;
75847;SDS011;65750;47.540;19.090;2023-04-06T05:51:34;9.88;;;3.85;;
75847;SDS011;65750;47.540;19.090;2023-04-06T05:54:01;8.65;;;4.10;;
75847;SDS011;65750;47.540;19.090;2023-04-06T05:56:29;8.63;;;4.30;;
75847;SDS011;65750;47.540;19.090;2023-04-06T05:58:59;10.05;;;4.18;;
75847;SDS011;65750;47.540;19.090;2023-04-06T06:01:26;9.50;;;3.97;;
75847;SDS011;65750;47.540;19.090;2023-04-06T06:03:55;11.10;;;4.37;;
75847;SDS011;65750;47.540;19.090;2023-04-06T06:06:23;9.43;;;4.10;;
75847;SDS011;65750;47.540;19.090;2023-04-06T06:08:53;8.70;;;4.03;;
75847;SDS011;65750;47.540;19.090;2023-04-06T06:11:21;9.77;;;4.25;;
75847;SDS011;65750;47.540;19.090;2023-04-06T06:13:48;7.87;;;4.32;;
75847;SDS011;65750;47.540;19.090;2023-04-06T06:16:17;7.97;;;4.28;;
75847;SDS011;65750;47.540;19.090;2023-04-06T06:18:45;11.07;;;4.43;;
75847;SDS011;65750;47.540;19.090;2023-04-06T06:21:12;9.10;;;4.63;;
75847;SDS011;65750;47.540;19.090;2023-04-06T06:23:42;7.68;;;4.90;;
75847;SDS011;65750;47.540;19.090;2023-04-06T06:26:11;9.50;;;4.43;;
75847;SDS011;65750;47.540;19.090;2023-04-06T06:28:38;6.55;;;4.20;;
75847;SDS011;65750;47.540;19.090;2023-04-06T06:31:08;9.15;;;4.40;;
75847;SDS011;65750;47.540;19.090;2023-04-06T06:33:37;10.00;;;4.40;;
75847;SDS011;65750;47.540;19.090;2023-04-06T06:36:05;9.50;;;4.78;;
75847;SDS011;65750;47.540;19.090;2023-04-06T06:38:32;6.62;;;4.15;;
75847;SDS011;65750;47.540;19.090;2023-04-06T06:41:00;7.95;;;4.15;;
75847;SDS011;65750;47.540;19.090;2023-04-06T06:43:28;12.00;;;4.72;;
75847;SDS011;65750;47.540;19.090;2023-04-06T06:45:55;9.07;;;4.00;;
75847;SDS011;65750;47.540;19.090;2023-04-06T06:48:24;10.73;;;4.40;;
75847;SDS011;65750;47.540;19.090;2023-04-06T06:50:54;14.57;;;4.45;;
75847;SDS011;65750;47.540;19.090;2023-04-06T06:53:21;12.23;;;5.03;;
75847;SDS011;65750;47.540;19.090;2023-04-06T06:55:49;10.48;;;4.60;;
75847;SDS011;65750;47.540;19.090;2023-04-06T06:58:17;11.70;;;4.33;;
75847;SDS011;65750;47.540;19.090;2023-04-06T07:00:45;11.77;;;4.90;;
75847;SDS011;65750;47.540;19.090;2023-04-06T07:03:12;9.73;;;4.72;;
75847;SDS011;65750;47.540;19.090;2023-04-06T07:05:44;12.13;;;5.15;;
75847;SDS011;65750;47.540;19.090;2023-04-06T07:08:16;11.15;;;4.85;;
75847;SDS011;65750;47.540;19.090;2023-04-06T07:10:43;11.60;;;4.57;;
75847;SDS011;65750;47.540;19.090;2023-04-06T07:13:10;10.13;;;4.95;;
75847;SDS011;65750;47.540;19.090;2023-04-06T07:15:38;9.48;;;4.85;;
75847;SDS011;65750;47.540;19.090;2023-04-06T07:18:04;12.37;;;5.50;;
75847;SDS011;65750;47.540;19.090;2023-04-06T07:20:31;11.50;;;5.20;;
75847;SDS011;65750;47.540;19.090;2023-04-06T07:22:59;10.70;;;4.87;;
75847;SDS011;65750;47.540;19.090;2023-04-06T07:25:27;12.70;;;4.90;;
75847;SDS011;65750;47.540;19.090;2023-04-06T07:27:55;11.20;;;5.30;;
75847;SDS011;65750;47.540;19.090;2023-04-06T07:30:23;10.20;;;4.55;;
75847;SDS011;65750;47.540;19.090;2023-04-06T07:32:52;10.07;;;4.65;;
75847;SDS011;65750;47.540;19.090;2023-04-06T07:35:21;17.27;;;9.53;;
75847;SDS011;65750;47.540;19.090;2023-04-06T07:37:48;21.15;;;12.48;;
75847;SDS011;65750;47.540;19.090;2023-04-06T07:40:16;20.45;;;13.88;;
75847;SDS011;65750;47.540;19.090;2023-04-06T07:42:45;26.23;;;15.50;;
75847;SDS011;65750;47.540;19.090;2023-04-06T07:45:13;20.95;;;13.77;;
75847;SDS011;65750;47.540;19.090;2023-04-06T07:47:40;20.50;;;13.10;;
75847;SDS011;65750;47.540;19.090;2023-04-06T07:50:08;18.95;;;11.20;;
75847;SDS011;65750;47.540;19.090;2023-04-06T07:52:36;25.05;;;12.00;;
75847;SDS011;65750;47.540;19.090;2023-04-06T07:55:04;28.23;;;12.35;;
75847;SDS011;65750;47.540;19.090;2023-04-06T07:57:31;32.47;;;11.75;;
75847;SDS011;65750;47.540;19.090;2023-04-06T08:00:00;27.37;;;10.83;;
75847;SDS011;65750;47.540;19.090;2023-04-06T08:02:37;30.25;;;11.23;;
75847;SDS011;65750;47.540;19.090;2023-04-06T08:05:05;28.92;;;10.55;;
75847;SDS011;65750;47.540;19.090;2023-04-06T08:07:32;30.23;;;10.95;;
75847;SDS011;65750;47.540;19.090;2023-04-06T08:09:59;28.48;;;10.95;;
75847;SDS011;65750;47.540;19.090;2023-04-06T08:12:27;24.57;;;9.67;;
75847;SDS011;65750;47.540;19.090;2023-04-06T08:14:54;29.95;;;10.27;;
75847;SDS011;65750;47.540;19.090;2023-04-06T08:17:23;28.00;;;9.52;;
75847;SDS011;65750;47.540;19.090;2023-04-06T08:19:53;24.58;;;9.30;;
75847;SDS011;65750;47.540;19.090;2023-04-06T08:22:20;24.52;;;9.07;;
75847;SDS011;65750;47.540;19.090;2023-04-06T08:24:47;26.27;;;8.70;;
75847;SDS011;65750;47.540;19.090;2023-04-06T08:27:14;24.95;;;8.00;;
75847;SDS011;65750;47.540;19.090;2023-04-06T08:29:42;24.05;;;8.18;;
75847;SDS011;65750;47.540;19.090;2023-04-06T08:32:08;20.75;;;8.60;;
75847;SDS011;65750;47.540;19.090;2023-04-06T08:34:37;20.73;;;7.90;;
75847;SDS011;65750;47.540;19.090;2023-04-06T08:37:04;20.97;;;7.70;;
75847;SDS011;65750;47.540;19.090;2023-04-06T08:39:31;18.20;;;7.57;;
75847;SDS011;65750;47.540;19.090;2023-04-06T08:42:00;20.00;;;7.82;;
75847;SDS011;65750;47.540;19.090;2023-04-06T08:44:28;22.08;;;7.87;;
75847;SDS011;65750;47.540;19.090;2023-04-06T08:46:55;21.40;;;7.37;;
75847;SDS011;65750;47.540;19.090;2023-04-06T08:49:23;20.80;;;7.27;;
75847;SDS011;65750;47.540;19.090;2023-04-06T08:51:51;21.77;;;7.65;;
75847;SDS011;65750;47.540;19.090;2023-04-06T08:54:18;17.83;;;7.75;;
75847;SDS011;65750;47.540;19.090;2023-04-06T08:56:45;21.30;;;7.20;;
75847;SDS011;65750;47.540;19.090;2023-04-06T08:59:12;17.92;;;6.55;;
75847;SDS011;65750;47.540;19.090;2023-04-06T09:01:40;17.80;;;7.17;;
75847;SDS011;65750;47.540;19.090;2023-04-06T09:04:08;20.00;;;6.53;;
75847;SDS011;65750;47.540;19.090;2023-04-06T09:06:36;17.87;;;6.43;;
75847;SDS011;65750;47.540;19.090;2023-04-06T09:09:05;16.87;;;6.93;;
75847;SDS011;65750;47.540;19.090;2023-04-06T09:11:42;16.60;;;6.70;;
75847;SDS011;65750;47.540;19.090;2023-04-06T09:14:09;17.17;;;7.03;;
75847;SDS011;65750;47.540;19.090;2023-04-06T09:16:40;14.80;;;6.65;;
75847;SDS011;65750;47.540;19.090;2023-04-06T09:19:08;15.55;;;6.35;;
75847;SDS011;65750;47.540;19.090;2023-04-06T09:21:35;16.40;;;6.90;;
75847;SDS011;65750;47.540;19.090;2023-04-06T09:24:03;16.25;;;7.03;;
75847;SDS011;65750;47.540;19.090;2023-04-06T09:26:43;17.83;;;6.57;;
75847;SDS011;65750;47.540;19.090;2023-04-06T09:29:21;17.05;;;6.37;;
75847;SDS011;65750;47.540;19.090;2023-04-06T09:31:48;15.52;;;6.20;;
75847;SDS011;65750;47.540;19.090;2023-04-06T09:34:20;14.52;;;6.40;;
75847;SDS011;65750;47.540;19.090;2023-04-06T09:36:48;14.43;;;6.65;;
75847;SDS011;65750;47.540;19.090;2023-04-06T09:39:19;14.43;;;5.97;;
75847;SDS011;65750;47.540;19.090;2023-04-06T09:41:49;13.68;;;6.20;;
75847;SDS011;65750;47.540;19.090;2023-04-06T09:44:16;13.90;;;5.60;;
75847;SDS011;65750;47.540;19.090;2023-04-06T09:46:44;13.62;;;6.20;;
75847;SDS011;65750;47.540;19.090;2023-04-06T09:49:12;14.57;;;6.22;;
75847;SDS011;65750;47.540;19.090;2023-04-06T09:51:40;12.63;;;5.83;;
75847;SDS011;65750;47.540;19.090;2023-04-06T09:54:08;13.70;;;6.10;;
75847;SDS011;65750;47.540;19.090;2023-04-06T09:56:39;12.18;;;5.70;;
75847;SDS011;65750;47.540;19.090;2023-04-06T09:59:12;12.85;;;5.70;;
75847;SDS011;65750;47.540;19.090;2023-04-06T10:01:40;12.52;;;5.72;;
75847;SDS011;65750;47.540;19.090;2023-04-06T10:04:12;10.73;;;5.67;;
75847;SDS011;65750;47.540;19.090;2023-04-06T10:06:46;13.55;;;5.68;;
75847;SDS011;65750;47.540;19.090;2023-04-06T10:09:18;13.48;;;5.78;;
75847;SDS011;65750;47.540;19.090;2023-04-06T10:11:46;11.93;;;5.45;;
75847;SDS011;65750;47.540;19.090;2023-04-06T10:14:14;12.95;;;5.45;;
75847;SDS011;65750;47.540;19.090;2023-04-06T10:16:42;12.57;;;6.00;;
75847;SDS011;65750;47.540;19.090;2023-04-06T10:19:10;12.45;;;6.18;;
75847;SDS011;65750;47.540;19.090;2023-04-06T10:21:40;11.00;;;5.10;;
75847;SDS011;65750;47.540;19.090;2023-04-06T10:24:09;9.65;;;4.85;;
75847;SDS011;65750;47.540;19.090;2023-04-06T10:26:37;10.50;;;5.05;;
75847;SDS011;65750;47.540;19.090;2023-04-06T10:29:05;13.07;;;5.33;;
75847;SDS011;65750;47.540;19.090;2023-04-06T10:31:39;12.18;;;5.20;;
75847;SDS011;65750;47.540;19.090;2023-04-06T10:34:06;11.65;;;5.18;;
75847;SDS011;65750;47.540;19.090;2023-04-06T10:36:34;13.68;;;5.40;;
75847;SDS011;65750;47.540;19.090;2023-04-06T10:39:02;9.75;;;5.05;;
75847;SDS011;65750;47.540;19.090;2023-04-06T10:41:33;9.97;;;5.03;;
75847;SDS011;65750;47.540;19.090;2023-04-06T10:44:01;10.52;;;5.28;;
75847;SDS011;65750;47.540;19.090;2023-04-06T10:46:30;11.55;;;4.93;;
75847;SDS011;65750;47.540;19.090;2023-04-06T10:48:58;11.70;;;5.35;;
75847;SDS011;65750;47.540;19.090;2023-04-06T10:51:37;11.75;;;5.25;;
75847;SDS011;65750;47.540;19.090;2023-04-06T10:54:04;10.37;;;5.23;;
75847;SDS011;65750;47.540;19.090;2023-04-06T10:56:31;12.57;;;5.53;;
75847;SDS011;65750;47.540;19.090;2023-04-06T10:59:01;11.63;;;4.95;;
75847;SDS011;65750;47.540;19.090;2023-04-06T11:01:29;10.07;;;5.10;;
75847;SDS011;65750;47.540;19.090;2023-04-06T11:03:56;7.65;;;4.72;;
75847;SDS011;65750;47.540;19.090;2023-04-06T11:06:25;11.70;;;5.40;;
75847;SDS011;65750;47.540;19.090;2023-04-06T11:08:54;10.95;;;5.00;;
75847;SDS011;65750;47.540;19.090;2023-04-06T11:11:21;9.98;;;4.75;;
75847;SDS011;65750;47.540;19.090;2023-04-06T11:13:51;10.45;;;4.80;;
75847;SDS011;65750;47.540;19.090;2023-04-06T11:16:20;8.65;;;4.78;;
75847;SDS011;65750;47.540;19.090;2023-04-06T11:18:53;9.73;;;4.87;;
75847;SDS011;65750;47.540;19.090;2023-04-06T11:21:31;8.63;;;4.93;;
75847;SDS011;65750;47.540;19.090;2023-04-06T11:24:05;9.65;;;4.72;;
75847;SDS011;65750;47.540;19.090;2023-04-06T11:26:36;8.43;;;4.30;;
75847;SDS011;65750;47.540;19.090;2023-04-06T11:29:04;8.85;;;4.60;;
75847;SDS011;65750;47.540;19.090;2023-04-06T11:31:31;9.37;;;4.20;;
75847;SDS011;65750;47.540;19.090;2023-04-06T11:34:00;8.63;;;4.60;;
75847;SDS011;65750;47.540;19.090;2023-04-06T11:36:27;8.05;;;4.80;;
75847;SDS011;65750;47.540;19.090;2023-04-06T11:38:56;9.68;;;4.57;;
75847;SDS011;65750;47.540;19.090;2023-04-06T11:41:23;8.40;;;4.45;;
75847;SDS011;65750;47.540;19.090;2023-04-06T11:43:54;9.00;;;4.93;;
75847;SDS011;65750;47.540;19.090;2023-04-06T11:46:21;9.23;;;4.78;;
75847;SDS011;65750;47.540;19.090;2023-04-06T11:48:49;10.02;;;4.60;;
75847;SDS011;65750;47.540;19.090;2023-04-06T11:51:22;8.00;;;4.20;;
75847;SDS011;65750;47.540;19.090;2023-04-06T11:53:50;7.72;;;4.40;;
75847;SDS011;65750;47.540;19.090;2023-04-06T11:56:26;8.77;;;4.53;;
75847;SDS011;65750;47.540;19.090;2023-04-06T11:58:55;8.65;;;4.55;;
75847;SDS011;65750;47.540;19.090;2023-04-06T12:01:23;10.38;;;4.45;;
75847;SDS011;65750;47.540;19.090;2023-04-06T12:03:51;8.48;;;4.20;;
75847;SDS011;65750;47.540;19.090;2023-04-06T12:06:18;8.40;;;4.37;;
75847;SDS011;65750;47.540;19.090;2023-04-06T12:08:47;7.93;;;4.60;;
75847;SDS011;65750;47.540;19.090;2023-04-06T12:11:14;11.68;;;4.75;;
75847;SDS011;65750;47.540;19.090;2023-04-06T12:13:41;8.48;;;4.00;;
75847;SDS011;65750;47.540;19.090;2023-04-06T12:16:09;8.38;;;4.18;;
75847;SDS011;65750;47.540;19.090;2023-04-06T12:18:36;8.13;;;4.28;;
75847;SDS011;65750;47.540;19.090;2023-04-06T12:21:03;8.10;;;4.40;;
75847;SDS011;65750;47.540;19.090;2023-04-06T12:23:31;8.60;;;4.22;;
75847;SDS011;65750;47.540;19.090;2023-04-06T12:26:00;8.05;;;4.03;;
75847;SDS011;65750;47.540;19.090;2023-04-06T12:28:27;7.95;;;4.20;;
75847;SDS011;65750;47.540;19.090;2023-04-06T12:30:54;8.23;;;3.97;;
75847;SDS011;65750;47.540;19.090;2023-04-06T12:33:22;7.70;;;4.20;;
75847;SDS011;65750;47.540;19.090;2023-04-06T12:35:49;8.18;;;4.05;;
75847;SDS011;65750;47.540;19.090;2023-04-06T12:38:16;7.68;;;4.03;;
75847;SDS011;65750;47.540;19.090;2023-04-06T12:40:43;8.48;;;3.85;;
75847;SDS011;65750;47.540;19.090;2023-04-06T12:43:12;7.40;;;4.10;;
75847;SDS011;65750;47.540;19.090;2023-04-06T12:45:39;8.30;;;4.20;;
75847;SDS011;65750;47.540;19.090;2023-04-06T12:48:06;9.07;;;4.45;;
75847;SDS011;65750;47.540;19.090;2023-04-06T12:50:34;6.70;;;3.70;;
75847;SDS011;65750;47.540;19.090;2023-04-06T12:53:01;7.28;;;3.83;;
75847;SDS011;65750;47.540;19.090;2023-04-06T12:55:29;7.40;;;3.62;;
75847;SDS011;65750;47.540;19.090;2023-04-06T12:57:59;8.37;;;4.23;;
75847;SDS011;65750;47.540;19.090;2023-04-06T13:00:28;8.27;;;4.20;;
75847;SDS011;65750;47.540;19.090;2023-04-06T13:02:56;6.37;;;3.67;;
75847;SDS011;65750;47.540;19.090;2023-04-06T13:05:23;6.45;;;3.45;;
75847;SDS011;65750;47.540;19.090;2023-04-06T13:07:50;7.37;;;3.90;;
75847;SDS011;65750;47.540;19.090;2023-04-06T13:10:18;5.53;;;3.60;;
75847;SDS011;65750;47.540;19.090;2023-04-06T13:12:45;7.12;;;3.80;;
75847;SDS011;65750;47.540;19.090;2023-04-06T13:15:12;6.72;;;3.70;;
75847;SDS011;65750;47.540;19.090;2023-04-06T13:17:41;7.97;;;4.32;;
75847;SDS011;65750;47.540;19.090;2023-04-06T13:20:08;6.80;;;3.50;;
75847;SDS011;65750;47.540;19.090;2023-04-06T13:22:35;7.47;;;3.93;;
75847;SDS011;65750;47.540;19.090;2023-04-06T13:25:03;8.27;;;3.80;;
75847;SDS011;65750;47.540;19.090;2023-04-06T13:27:30;7.25;;;3.62;;
75847;SDS011;65750;47.540;19.090;2023-04-06T13:29:59;6.40;;;3.70;;
75847;SDS011;65750;47.540;19.090;2023-04-06T13:32:26;6.28;;;3.35;;
75847;SDS011;65750;47.540;19.090;2023-04-06T13:34:55;6.73;;;3.53;;
75847;SDS011;65750;47.540;19.090;2023-04-06T13:37:22;6.35;;;3.80;;
75847;SDS011;65750;47.540;19.090;2023-04-06T13:39:50;6.35;;;3.70;;
75847;SDS011;65750;47.540;19.090;2023-04-06T13:42:17;8.07;;;3.50;;
75847;SDS011;65750;47.540;19.090;2023-04-06T13:44:45;6.25;;;3.35;;
75847;SDS011;65750;47.540;19.090;2023-04-06T13:47:13;6.37;;;3.50;;
75847;SDS011;65750;47.540;19.090;2023-04-06T13:49:41;6.47;;;3.37;;
75847;SDS011;65750;47.540;19.090;2023-04-06T13:52:09;6.82;;;3.60;;
75847;SDS011;65750;47.540;19.090;2023-04-06T13:54:37;6.10;;;3.30;;
75847;SDS011;65750;47.540;19.090;2023-04-06T13:57:04;5.57;;;3.33;;
75847;SDS011;65750;47.540;19.090;2023-04-06T13:59:32;7.90;;;3.40;;
75847;SDS011;65750;47.540;19.090;2023-04-06T14:02:00;6.55;;;3.45;;
75847;SDS011;65750;47.540;19.090;2023-04-06T14:04:28;5.68;;;3.15;;
75847;SDS011;65750;47.540;19.090;2023-04-06T14:06:55;6.70;;;3.50;;
75847;SDS011;65750;47.540;19.090;2023-04-06T14:09:23;5.57;;;3.25;;
75847;SDS011;65750;47.540;19.090;2023-04-06T14:11:51;6.73;;;3.60;;
75847;SDS011;65750;47.540;19.090;2023-04-06T14:14:19;5.50;;;3.37;;
75847;SDS011;65750;47.540;19.090;2023-04-06T14:16:46;5.95;;;3.37;;
75847;SDS011;65750;47.540;19.090;2023-04-06T14:19:14;5.80;;;3.40;;
75847;SDS011;65750;47.540;19.090;2023-04-06T14:21:42;5.53;;;3.20;;
75847;SDS011;65750;47.540;19.090;2023-04-06T14:24:10;5.60;;;3.40;;
75847;SDS011;65750;47.540;19.090;2023-04-06T14:26:39;7.35;;;3.85;;
75847;SDS011;65750;47.540;19.090;2023-04-06T14:29:08;5.25;;;3.12;;
75847;SDS011;65750;47.540;19.090;2023-04-06T14:31:35;5.15;;;3.40;;
75847;SDS011;65750;47.540;19.090;2023-04-06T14:34:03;6.15;;;3.10;;
75847;SDS011;65750;47.540;19.090;2023-04-06T14:36:31;5.20;;;3.20;;